Time;durP1;ratioP1;P1;durP2;ratioP2;P2;SDS_P1;SDS_P2;PMS_P1;PMS_P2;Temp;Humidity;BMP_temperature;BMP_pressure;BME280_temperature;BME280_humidity;BME280_pressure;Samples;Min_cycle;Max_cycle;Signal;HPM_P1;HPM_P2
2022/12/15 00:39:15;;;;;;;10.10;5.03;;;;;;;;;;5000845;28;20052;-59
2022/12/15 00:41:41;;;;;;;10.32;4.60;;;;;;;;;;5003161;28;20805;-58
2022/12/15 00:44:07;;;;;;;11.82;4.60;;;;;;;;;;5000983;28;20072;-62
2022/12/15 01:22:12;;;;;;;7.18;4.13;;;;;;;;;;5002292;28;20041;-58
2022/12/15 01:24:38;;;;;;;7.10;3.75;;;;;;;;;;4994832;28;20642;-58
2022/12/15 01:27:04;;;;;;;10.18;3.70;;;;;;;;;;5001462;28;20057;-60
2022/12/15 01:29:30;;;;;;;10.25;3.75;;;;;;;;;;5000235;28;20455;-58
2022/12/15 01:31:56;;;;;;;7.03;3.20;;;;;;;;;;4999263;28;20054;-61
2022/12/15 01:34:22;;;;;;;9.23;4.10;;;;;;;;;;4996261;28;20100;-57
2022/12/15 01:36:48;;;;;;;9.40;3.60;;;;;;;;;;4981530;28;20042;-59
2022/12/15 01:39:14;;;;;;;12.85;3.58;;;;;;;;;;4995668;28;20057;-59
2022/12/15 01:41:40;;;;;;;8.18;3.15;;;;;;;;;;4999386;28;20049;-60
2022/12/15 01:44:20;;;;;;;8.18;3.38;;;;;;;;;;5001260;28;20045;-62
2022/12/15 01:46:54;;;;;;;7.03;3.28;;;;;;;;;;5001375;28;20053;-63
2022/12/15 01:49:24;;;;;;;8.00;3.53;;;;;;;;;;5000392;28;20052;-58
2022/12/15 01:51:54;;;;;;;7.38;3.33;;;;;;;;;;5007652;28;20060;-59
2022/12/15 01:54:29;;;;;;;6.65;3.30;;;;;;;;;;4996264;28;20042;-58
2022/12/15 01:57:01;;;;;;;9.45;3.17;;;;;;;;;;5005099;28;20057;-57
2022/12/15 01:59:33;;;;;;;6.72;2.90;;;;;;;;;;4984840;28;20468;-56
2022/12/15 02:01:59;;;;;;;9.60;3.25;;;;;;;;;;4996868;28;20054;-56
2022/12/15 02:04:25;;;;;;;7.53;2.90;;;;;;;;;;4995035;28;20052;-58
2022/12/15 02:06:52;;;;;;;10.77;3.10;;;;;;;;;;5002488;28;20064;-57
2022/12/15 02:09:19;;;;;;;6.93;3.10;;;;;;;;;;4998114;28;20050;-57
2022/12/15 02:11:59;;;;;;;10.82;3.15;;;;;;;;;;4999082;28;20374;-64
2022/12/15 02:14:52;;;;;;;6.47;2.53;;;;;;;;;;5000688;28;20781;-57
2022/12/15 02:17:34;;;;;;;4.47;2.50;;;;;;;;;;4994542;28;20053;-58
2022/12/15 02:20:24;;;;;;;7.20;2.63;;;;;;;;;;4997519;28;20061;-59
2022/12/15 02:23:34;;;;;;;6.22;2.22;;;;;;;;;;5005685;28;20049;-59
2022/12/15 02:26:19;;;;;;;7.60;2.38;;;;;;;;;;4998608;28;20046;-61
2022/12/15 02:29:03;;;;;;;5.13;2.42;;;;;;;;;;5004819;28;20117;-59
2022/12/15 02:31:48;;;;;;;4.18;2.10;;;;;;;;;;5002791;28;20112;-59
2022/12/15 02:34:25;;;;;;;5.03;2.05;;;;;;;;;;4995933;28;20080;-57
2022/12/15 02:37:00;;;;;;;4.82;2.20;;;;;;;;;;5007849;28;20080;-56
2022/12/15 02:39:26;;;;;;;2.83;1.80;;;;;;;;;;4992138;28;20492;-57
2022/12/15 02:41:52;;;;;;;4.72;2.03;;;;;;;;;;5004610;28;20053;-58
2022/12/15 02:44:27;;;;;;;4.43;2.00;;;;;;;;;;5006119;28;20354;-58
2022/12/15 02:47:26;;;;;;;3.58;1.50;;;;;;;;;;4997807;28;20136;-58
2022/12/15 02:50:37;;;;;;;6.18;1.70;;;;;;;;;;4999399;28;20050;-57
2022/12/15 02:53:40;;;;;;;3.08;1.60;;;;;;;;;;4963139;28;20047;-56
2022/12/15 02:56:09;;;;;;;3.83;1.50;;;;;;;;;;4958429;28;20051;-59
2022/12/15 02:58:52;;;;;;;2.72;1.20;;;;;;;;;;4964446;28;20074;-59
2022/12/15 03:01:27;;;;;;;4.80;1.25;;;;;;;;;;4958660;28;20236;-58
2022/12/15 03:03:55;;;;;;;1.73;1.17;;;;;;;;;;4961604;28;20047;-56
2022/12/15 03:06:24;;;;;;;2.50;1.23;;;;;;;;;;4963527;28;20046;-58
2022/12/15 03:08:49;;;;;;;1.83;1.20;;;;;;;;;;4962904;28;20118;-56
2022/12/15 03:11:16;;;;;;;1.60;0.95;;;;;;;;;;4958950;28;20054;-59
2022/12/15 03:13:41;;;;;;;2.63;0.95;;;;;;;;;;4959419;28;20057;-56
2022/12/15 03:16:07;;;;;;;1.70;0.80;;;;;;;;;;4963055;28;20578;-56
2022/12/15 03:18:33;;;;;;;0.90;0.57;;;;;;;;;;4966905;28;20050;-56
2022/12/15 03:20:59;;;;;;;1.73;0.82;;;;;;;;;;4958797;28;20716;-57
2022/12/15 03:23:25;;;;;;;0.90;0.70;;;;;;;;;;4962025;28;20089;-56
2022/12/15 03:25:51;;;;;;;4.22;0.82;;;;;;;;;;4963887;28;20594;-54
2022/12/15 03:28:17;;;;;;;1.77;0.50;;;;;;;;;;5006662;28;20046;-58
2022/12/15 03:30:43;;;;;;;0.98;0.70;;;;;;;;;;5001934;28;20062;-58
2022/12/15 03:33:10;;;;;;;1.60;0.88;;;;;;;;;;5005532;28;20061;-58
2022/12/15 03:35:36;;;;;;;1.23;0.68;;;;;;;;;;5006271;28;20045;-59
2022/12/15 03:38:02;;;;;;;1.40;0.80;;;;;;;;;;4984604;28;20049;-58
2022/12/15 03:40:28;;;;;;;2.55;0.60;;;;;;;;;;5002113;28;20125;-59
2022/12/15 03:42:53;;;;;;;1.80;0.40;;;;;;;;;;4999304;28;20529;-58
2022/12/15 03:45:25;;;;;;;2.60;0.80;;;;;;;;;;4997933;28;20085;-57
2022/12/15 03:47:51;;;;;;;4.10;0.63;;;;;;;;;;5005095;28;20073;-57
2022/12/15 03:50:24;;;;;;;1.95;0.80;;;;;;;;;;5000489;28;20073;-59
2022/12/15 03:52:57;;;;;;;0.35;0.30;;;;;;;;;;4992577;28;20062;-64
2022/12/15 03:55:24;;;;;;;0.50;0.38;;;;;;;;;;5004776;28;20064;-60
2022/12/15 03:57:50;;;;;;;2.53;0.68;;;;;;;;;;5004883;28;20065;-56
2022/12/15 04:00:19;;;;;;;1.65;0.50;;;;;;;;;;5006680;28;20056;-56
2022/12/15 04:02:46;;;;;;;4.05;0.95;;;;;;;;;;5004011;28;20053;-58
2022/12/15 04:05:24;;;;;;;1.58;0.52;;;;;;;;;;4994842;28;20089;-57
2022/12/15 04:07:51;;;;;;;0.55;0.40;;;;;;;;;;5001529;28;20125;-65
2022/12/15 04:10:17;;;;;;;1.42;0.50;;;;;;;;;;5012044;28;20042;-58
2022/12/15 04:12:43;;;;;;;1.75;0.40;;;;;;;;;;5006667;28;20073;-54
2022/12/15 04:15:10;;;;;;;2.25;0.60;;;;;;;;;;5007097;28;20141;-59
2022/12/15 04:17:36;;;;;;;0.47;0.32;;;;;;;;;;4988235;28;20053;-56
2022/12/15 04:20:10;;;;;;;0.63;0.30;;;;;;;;;;5003840;28;20097;-61
2022/12/15 04:22:40;;;;;;;0.43;0.40;;;;;;;;;;4998643;28;20121;-56
2022/12/15 05:33:58;;;;;;;4.53;0.85;;;;;;;;;;5001494;28;19921;-56
2022/12/15 05:36:24;;;;;;;1.77;0.55;;;;;;;;;;5003759;28;20050;-56
2022/12/15 05:38:51;;;;;;;1.20;0.60;;;;;;;;;;5001971;28;20486;-52
2022/12/15 05:41:19;;;;;;;1.83;0.55;;;;;;;;;;5001587;28;20491;-59
2022/12/15 05:43:45;;;;;;;2.13;0.70;;;;;;;;;;4998152;28;20050;-55
2022/12/15 05:46:13;;;;;;;0.63;0.50;;;;;;;;;;5002042;28;20169;-58
2022/12/15 05:48:40;;;;;;;1.42;0.75;;;;;;;;;;5004570;28;20438;-56
2022/12/15 05:51:10;;;;;;;0.80;0.47;;;;;;;;;;5005791;28;20041;-59
2022/12/15 05:53:38;;;;;;;0.93;0.65;;;;;;;;;;5001871;28;20046;-59
2022/12/15 05:56:06;;;;;;;2.38;0.57;;;;;;;;;;4995182;28;20053;-54
2022/12/15 05:58:32;;;;;;;0.55;0.40;;;;;;;;;;5003387;28;20045;-58
2022/12/15 06:01:13;;;;;;;0.88;0.40;;;;;;;;;;4997426;28;20057;-60
2022/12/15 06:03:39;;;;;;;2.13;0.60;;;;;;;;;;4998997;28;20073;-58
2022/12/15 06:06:07;;;;;;;0.55;0.55;;;;;;;;;;4992483;28;20117;-60
2022/12/15 06:08:35;;;;;;;0.80;0.57;;;;;;;;;;5000157;28;20501;-57
2022/12/15 06:11:02;;;;;;;0.98;0.40;;;;;;;;;;4984770;28;20060;-57
2022/12/15 06:13:33;;;;;;;1.92;0.70;;;;;;;;;;4997649;28;21024;-55
2022/12/15 06:16:19;;;;;;;2.28;0.60;;;;;;;;;;4994875;28;20049;-57
2022/12/15 06:18:49;;;;;;;5.03;0.80;;;;;;;;;;5000366;28;20073;-57
2022/12/15 06:21:18;;;;;;;1.48;0.85;;;;;;;;;;4993239;28;20073;-56
2022/12/15 06:23:45;;;;;;;1.52;0.80;;;;;;;;;;5002571;28;20054;-62
2022/12/15 06:26:23;;;;;;;2.28;0.90;;;;;;;;;;5002861;28;20064;-54
2022/12/15 06:28:50;;;;;;;0.77;0.75;;;;;;;;;;5005794;28;20052;-57
2022/12/15 06:31:19;;;;;;;6.90;0.93;;;;;;;;;;4998656;28;20051;-55
2022/12/15 06:33:45;;;;;;;1.00;0.70;;;;;;;;;;4995726;28;20054;-56
2022/12/15 06:36:13;;;;;;;0.60;0.60;;;;;;;;;;4994604;28;20450;-58
2022/12/15 06:38:42;;;;;;;1.45;0.80;;;;;;;;;;4998992;28;20072;-56
2022/12/15 06:41:14;;;;;;;2.45;0.68;;;;;;;;;;5003947;28;20046;-57
2022/12/15 06:43:40;;;;;;;3.25;1.00;;;;;;;;;;5002569;28;20057;-57
2022/12/15 06:46:07;;;;;;;1.40;0.50;;;;;;;;;;5003580;28;20461;-68
2022/12/15 06:48:34;;;;;;;1.45;0.75;;;;;;;;;;5000253;28;20050;-60
2022/12/15 06:51:04;;;;;;;0.65;0.60;;;;;;;;;;5004222;28;20402;-56
2022/12/15 06:53:30;;;;;;;2.03;0.85;;;;;;;;;;5001409;28;20038;-58
2022/12/15 06:56:02;;;;;;;1.25;0.80;;;;;;;;;;5000746;28;20057;-59
2022/12/15 06:58:28;;;;;;;0.98;0.68;;;;;;;;;;5007617;28;20460;-57
2022/12/15 07:00:55;;;;;;;1.45;0.90;;;;;;;;;;5001815;28;20064;-63
2022/12/15 07:03:21;;;;;;;1.13;0.70;;;;;;;;;;5000324;28;20061;-59
2022/12/15 07:05:47;;;;;;;4.07;0.82;;;;;;;;;;4979930;28;20054;-62
2022/12/15 07:08:15;;;;;;;3.28;0.98;;;;;;;;;;4977738;28;20505;-60
2022/12/15 07:10:42;;;;;;;3.90;0.77;;;;;;;;;;4990358;28;20544;-62
2022/12/15 07:13:12;;;;;;;3.95;0.90;;;;;;;;;;4998577;28;20081;-61
2022/12/15 07:15:39;;;;;;;1.77;0.73;;;;;;;;;;5000781;28;20336;-61
2022/12/15 07:18:06;;;;;;;2.85;0.65;;;;;;;;;;4998465;28;20518;-61
2022/12/15 07:20:33;;;;;;;1.52;0.70;;;;;;;;;;4994418;28;20061;-58
2022/12/15 07:22:59;;;;;;;2.83;0.60;;;;;;;;;;4996021;28;20413;-60
2022/12/15 07:25:25;;;;;;;1.77;0.90;;;;;;;;;;4998598;28;20042;-62
2022/12/15 07:27:51;;;;;;;1.05;0.80;;;;;;;;;;5003180;28;20050;-62
2022/12/15 07:30:17;;;;;;;1.95;0.98;;;;;;;;;;5000336;28;20053;-63
2022/12/15 07:32:44;;;;;;;1.88;1.02;;;;;;;;;;5000447;28;20054;-60
2022/12/15 07:35:11;;;;;;;3.15;0.82;;;;;;;;;;5004201;28;20050;-62
2022/12/15 07:37:37;;;;;;;5.88;1.10;;;;;;;;;;5006838;28;20070;-62
2022/12/15 07:40:04;;;;;;;5.88;1.40;;;;;;;;;;4996089;28;20054;-66
2022/12/15 07:42:31;;;;;;;4.78;1.00;;;;;;;;;;5004267;28;20038;-63
2022/12/15 07:44:57;;;;;;;4.38;0.90;;;;;;;;;;5002840;28;20116;-61
2022/12/15 07:47:23;;;;;;;2.00;0.90;;;;;;;;;;4988414;28;20057;-64
2022/12/15 07:49:49;;;;;;;3.60;0.93;;;;;;;;;;5006549;28;20073;-64
2022/12/15 07:52:15;;;;;;;4.65;0.95;;;;;;;;;;4994144;28;20058;-64
2022/12/15 07:54:41;;;;;;;4.25;1.20;;;;;;;;;;4997788;28;20041;-63
2022/12/15 07:57:07;;;;;;;3.08;1.02;;;;;;;;;;5007993;28;20636;-62
2022/12/15 07:59:33;;;;;;;5.63;1.27;;;;;;;;;;5003927;28;20045;-62
2022/12/15 08:02:02;;;;;;;4.72;0.90;;;;;;;;;;5005809;28;20053;-63
2022/12/15 08:04:31;;;;;;;3.42;1.00;;;;;;;;;;5000372;28;20054;-64
2022/12/15 08:06:57;;;;;;;3.42;1.13;;;;;;;;;;4989317;28;20042;-61
2022/12/15 08:09:24;;;;;;;3.15;0.90;;;;;;;;;;4998754;28;20046;-60
2022/12/15 08:11:49;;;;;;;7.30;1.52;;;;;;;;;;5001153;28;20053;-59
2022/12/15 08:14:17;;;;;;;5.53;1.20;;;;;;;;;;4994027;28;20057;-61
2022/12/15 08:16:42;;;;;;;3.03;1.10;;;;;;;;;;4995738;28;20042;-62
2022/12/15 08:19:11;;;;;;;6.07;1.38;;;;;;;;;;4995145;28;21125;-60
2022/12/15 08:21:41;;;;;;;3.22;1.00;;;;;;;;;;4995104;28;20048;-60
2022/12/15 08:24:08;;;;;;;3.33;1.10;;;;;;;;;;5000641;28;20112;-64
2022/12/15 08:26:36;;;;;;;5.97;1.20;;;;;;;;;;4984100;28;20141;-61
2022/12/15 08:29:08;;;;;;;4.15;1.10;;;;;;;;;;5007340;28;20533;-62
2022/12/15 08:31:34;;;;;;;3.50;1.00;;;;;;;;;;5000882;28;20046;-66
2022/12/15 08:34:01;;;;;;;2.03;0.80;;;;;;;;;;5008832;28;20445;-62
2022/12/15 08:36:28;;;;;;;5.75;1.33;;;;;;;;;;5007854;28;20053;-60
2022/12/15 08:38:58;;;;;;;2.80;0.90;;;;;;;;;;5000096;28;20309;-64
2022/12/15 08:41:27;;;;;;;6.38;1.13;;;;;;;;;;4993981;28;20677;-64
2022/12/15 08:43:54;;;;;;;2.50;1.10;;;;;;;;;;5000398;28;20460;-62
2022/12/15 08:46:22;;;;;;;2.97;0.93;;;;;;;;;;5000360;28;20048;-63
2022/12/15 08:48:49;;;;;;;3.85;1.00;;;;;;;;;;5000915;28;20109;-60
2022/12/15 08:51:15;;;;;;;2.72;1.00;;;;;;;;;;4999846;28;20054;-62
2022/12/15 08:53:41;;;;;;;8.48;1.02;;;;;;;;;;4988516;28;20391;-65
2022/12/15 08:56:18;;;;;;;1.35;0.70;;;;;;;;;;5002823;28;20127;-63
2022/12/15 08:58:46;;;;;;;3.97;1.10;;;;;;;;;;5002981;28;20061;-66
2022/12/15 09:01:19;;;;;;;5.65;1.10;;;;;;;;;;4999549;28;20045;-62
2022/12/15 09:03:45;;;;;;;5.13;1.05;;;;;;;;;;4996714;28;20049;-66
2022/12/15 09:06:14;;;;;;;3.55;0.80;;;;;;;;;;4998788;28;20070;-61
2022/12/15 09:08:41;;;;;;;2.53;0.75;;;;;;;;;;5002827;28;20105;-63
2022/12/15 09:11:07;;;;;;;1.38;0.85;;;;;;;;;;5001442;28;20054;-61
2022/12/15 09:13:33;;;;;;;1.55;0.47;;;;;;;;;;5000788;28;20756;-60
2022/12/15 09:16:00;;;;;;;2.22;0.90;;;;;;;;;;5002510;28;20119;-63
2022/12/15 09:18:26;;;;;;;3.78;0.77;;;;;;;;;;5006657;28;20042;-63
2022/12/15 09:20:53;;;;;;;10.60;1.02;;;;;;;;;;4991905;28;20041;-61
2022/12/15 09:23:20;;;;;;;2.10;0.80;;;;;;;;;;4997653;28;20042;-62
2022/12/15 09:25:46;;;;;;;2.58;0.80;;;;;;;;;;4998521;28;20148;-61
2022/12/15 09:28:13;;;;;;;5.13;1.10;;;;;;;;;;4996080;28;20065;-61
2022/12/15 09:30:39;;;;;;;2.38;0.90;;;;;;;;;;4991587;28;20117;-62
2022/12/15 09:33:06;;;;;;;5.65;1.60;;;;;;;;;;4997148;28;20058;-62
2022/12/15 09:35:32;;;;;;;8.55;1.55;;;;;;;;;;4981304;28;20069;-63
2022/12/15 09:37:58;;;;;;;7.13;1.00;;;;;;;;;;5000987;28;20042;-62
2022/12/15 09:40:24;;;;;;;2.55;0.90;;;;;;;;;;4997707;28;20493;-62
2022/12/15 09:42:54;;;;;;;5.32;0.88;;;;;;;;;;5007485;28;20050;-58
2022/12/15 09:45:33;;;;;;;3.67;0.95;;;;;;;;;;4995784;28;20049;-60
2022/12/15 09:48:13;;;;;;;4.65;1.60;;;;;;;;;;5001447;28;20625;-60
2022/12/15 09:50:41;;;;;;;6.40;0.95;;;;;;;;;;4996562;28;20041;-58
2022/12/15 09:53:14;;;;;;;1.67;0.63;;;;;;;;;;4994980;28;20789;-64
2022/12/15 09:55:44;;;;;;;4.25;0.80;;;;;;;;;;4997319;28;20042;-64
2022/12/15 09:58:44;;;;;;;3.42;0.82;;;;;;;;;;4994412;28;20046;-59
2022/12/15 10:01:22;;;;;;;6.13;1.17;;;;;;;;;;4996817;28;20053;-66
2022/12/15 10:04:16;;;;;;;3.20;1.05;;;;;;;;;;4996117;28;20533;-60
2022/12/15 10:07:03;;;;;;;3.70;0.90;;;;;;;;;;4997305;28;20335;-67
2022/12/15 10:09:30;;;;;;;2.67;1.00;;;;;;;;;;4997138;28;20549;-63
2022/12/15 10:12:14;;;;;;;3.53;1.40;;;;;;;;;;4996563;28;20185;-63
2022/12/15 10:14:55;;;;;;;1.90;0.90;;;;;;;;;;5000934;28;20045;-61
2022/12/15 10:17:47;;;;;;;3.28;1.00;;;;;;;;;;4994248;28;20038;-63
2022/12/15 10:20:20;;;;;;;3.50;0.98;;;;;;;;;;4995892;28;20046;-63
2022/12/15 10:22:47;;;;;;;4.57;0.90;;;;;;;;;;4981086;28;20540;-65
2022/12/15 10:25:19;;;;;;;3.03;1.10;;;;;;;;;;4990517;28;20128;-63
2022/12/15 10:28:07;;;;;;;3.05;1.15;;;;;;;;;;4998414;28;20149;-61
2022/12/15 10:30:34;;;;;;;10.23;1.50;;;;;;;;;;5000070;28;20049;-62
2022/12/15 10:33:12;;;;;;;2.85;1.00;;;;;;;;;;4999976;28;20062;-61
2022/12/15 10:35:40;;;;;;;6.15;1.48;;;;;;;;;;5002298;28;20057;-60
2022/12/15 10:38:25;;;;;;;4.25;1.00;;;;;;;;;;4998179;28;20451;-63
2022/12/15 10:40:55;;;;;;;4.15;1.00;;;;;;;;;;4977313;28;20046;-64
2022/12/15 10:43:34;;;;;;;2.70;0.80;;;;;;;;;;4998878;28;20054;-63
2022/12/15 10:46:18;;;;;;;5.60;1.02;;;;;;;;;;5001853;28;20496;-61
2022/12/15 10:48:47;;;;;;;4.63;1.20;;;;;;;;;;4994725;28;20046;-63
2022/12/15 10:51:16;;;;;;;6.10;1.10;;;;;;;;;;5001693;28;20710;-63
2022/12/15 10:54:13;;;;;;;3.05;0.98;;;;;;;;;;4998443;28;20054;-64
2022/12/15 10:56:54;;;;;;;3.08;0.95;;;;;;;;;;4999922;28;20065;-64
2022/12/15 10:59:27;;;;;;;4.07;1.33;;;;;;;;;;5006418;28;20069;-63
2022/12/15 11:01:54;;;;;;;4.53;1.17;;;;;;;;;;4984841;28;20076;-62
2022/12/15 11:04:38;;;;;;;6.32;0.93;;;;;;;;;;5003583;28;20046;-62
2022/12/15 11:07:12;;;;;;;2.33;0.82;;;;;;;;;;5002810;28;20045;-64
2022/12/15 11:09:38;;;;;;;;;;;;;;;;;;4999741;28;20049;-61
2022/12/15 11:15:24;;;;;;;6.95;1.13;;;;;;;;;;4999599;28;20073;-63
2022/12/15 11:18:17;;;;;;;3.92;1.00;;;;;;;;;;5005812;28;20057;-64
2022/12/15 11:20:49;;;;;;;7.10;1.30;;;;;;;;;;4999506;28;20457;-62
2022/12/15 11:23:20;;;;;;;6.65;1.25;;;;;;;;;;4997948;28;20045;-67
2022/12/15 11:26:22;;;;;;;6.25;1.20;;;;;;;;;;4982281;28;20069;-63
2022/12/15 11:28:55;;;;;;;3.78;1.13;;;;;;;;;;4989295;28;20092;-67
2022/12/15 11:31:47;;;;;;;3.55;1.13;;;;;;;;;;4995832;28;20112;-64
2022/12/15 11:34:18;;;;;;;6.13;1.20;;;;;;;;;;4986428;28;20058;-60
2022/12/15 11:36:46;;;;;;;5.05;1.02;;;;;;;;;;5003917;28;20531;-64
2022/12/15 11:39:41;;;;;;;3.22;1.20;;;;;;;;;;5000322;28;20234;-66
2022/12/15 11:42:19;;;;;;;5.18;1.30;;;;;;;;;;4983929;28;20046;-62
2022/12/15 11:45:16;;;;;;;6.07;1.90;;;;;;;;;;4998062;28;20169;-65
2022/12/15 11:48:00;;;;;;;7.15;1.10;;;;;;;;;;5003824;28;20091;-65
2022/12/15 11:51:17;;;;;;;1.83;1.10;;;;;;;;;;4997412;28;20096;-62
2022/12/15 11:53:55;;;;;;;1.52;0.98;;;;;;;;;;4941883;28;20522;-64
2022/12/15 11:56:38;;;;;;;5.20;1.25;;;;;;;;;;4949670;29;20562;-66
2022/12/15 11:59:24;;;;;;;5.90;1.17;;;;;;;;;;4947214;28;20599;-63
2022/12/15 12:02:02;;;;;;;3.72;1.13;;;;;;;;;;4942607;28;20094;-62
2022/12/15 12:04:58;;;;;;;4.82;1.30;;;;;;;;;;4938317;28;20074;-61
2022/12/15 12:07:27;;;;;;;4.70;1.10;;;;;;;;;;4940284;28;20175;-59
2022/12/15 12:10:21;;;;;;;3.10;1.08;;;;;;;;;;4941730;28;20066;-64
2022/12/15 12:12:55;;;;;;;;;;;;;;;;;;4943723;28;20063;-64
2022/12/15 12:15:39;;;;;;;8.88;1.27;;;;;;;;;;4940848;28;19934;-62
2022/12/15 12:18:32;;;;;;;;;;;;;;;;;;4940271;28;20058;-63
2022/12/15 12:21:00;;;;;;;5.32;1.33;;;;;;;;;;4941076;28;20017;-64
2022/12/15 12:23:46;;;;;;;4.38;1.20;;;;;;;;;;4944395;28;20430;-64
2022/12/15 12:26:22;;;;;;;3.58;1.20;;;;;;;;;;4999932;28;20038;-65
2022/12/15 12:29:13;;;;;;;5.30;1.33;;;;;;;;;;4998249;28;20046;-63
2022/12/15 12:31:56;;;;;;;4.35;1.20;;;;;;;;;;5000175;28;20149;-62
2022/12/15 12:34:47;;;;;;;2.78;0.90;;;;;;;;;;5001915;28;20053;-64
2022/12/15 12:37:34;;;;;;;4.95;1.10;;;;;;;;;;4998486;28;20045;-62
2022/12/15 12:40:06;;;;;;;1.10;0.90;;;;;;;;;;4996835;28;20046;-63
2022/12/15 12:42:39;;;;;;;8.77;1.33;;;;;;;;;;4998931;28;20144;-67
2022/12/15 12:45:09;;;;;;;5.50;1.20;;;;;;;;;;4987444;28;20050;-65
2022/12/15 12:47:41;;;;;;;5.25;1.42;;;;;;;;;;5003500;28;20132;-63
2022/12/15 12:50:19;;;;;;;5.57;1.10;;;;;;;;;;5004251;28;20520;-64
2022/12/15 12:52:50;;;;;;;3.75;1.25;;;;;;;;;;4997700;28;20082;-66
2022/12/15 12:55:24;;;;;;;5.22;1.30;;;;;;;;;;4999376;28;20088;-63
2022/12/15 12:57:51;;;;;;;4.82;1.10;;;;;;;;;;5006604;28;20049;-63
2022/12/15 13:00:18;;;;;;;4.88;1.00;;;;;;;;;;5005506;28;20037;-65
2022/12/15 13:03:05;;;;;;;4.78;1.60;;;;;;;;;;4994199;28;20057;-67
2022/12/15 13:05:36;;;;;;;7.53;1.45;;;;;;;;;;4993747;28;20077;-67
2022/12/15 13:08:04;;;;;;;6.40;1.27;;;;;;;;;;4996278;28;20061;-66
2022/12/15 13:10:35;;;;;;;5.28;1.17;;;;;;;;;;4995233;28;20054;-64
2022/12/15 13:13:29;;;;;;;5.55;1.40;;;;;;;;;;4993767;28;20549;-63
2022/12/15 13:16:01;;;;;;;;;;;;;;;;;;4991592;28;20409;-64
2022/12/15 13:18:27;;;;;;;5.53;1.10;;;;;;;;;;4996153;28;19925;-65
2022/12/15 13:20:55;;;;;;;2.92;1.15;;;;;;;;;;5000825;28;20056;-65
2022/12/15 13:23:24;;;;;;;2.58;1.17;;;;;;;;;;4999640;28;20060;-62
2022/12/15 13:25:56;;;;;;;4.32;1.33;;;;;;;;;;5004128;28;20065;-65
2022/12/15 13:28:27;;;;;;;8.23;1.63;;;;;;;;;;4994886;28;20046;-64
2022/12/15 13:31:15;;;;;;;6.68;1.50;;;;;;;;;;4995778;28;20050;-65
2022/12/15 13:33:51;;;;;;;6.43;1.63;;;;;;;;;;4991983;28;20089;-64
2022/12/15 13:36:36;;;;;;;6.55;1.80;;;;;;;;;;4996560;28;20050;-64
2022/12/15 13:39:13;;;;;;;9.63;1.60;;;;;;;;;;4984216;28;20473;-64
2022/12/15 13:41:40;;;;;;;8.02;1.60;;;;;;;;;;5004890;28;20049;-65
2022/12/15 13:44:30;;;;;;;8.27;1.50;;;;;;;;;;4990461;28;20053;-62
2022/12/15 13:47:12;;;;;;;3.97;1.25;;;;;;;;;;4998357;28;20054;-63
2022/12/15 13:49:47;;;;;;;3.47;1.40;;;;;;;;;;5000126;28;20401;-65
2022/12/15 13:52:19;;;;;;;6.95;1.33;;;;;;;;;;4994704;28;20054;-66
2022/12/15 13:54:53;;;;;;;5.47;1.40;;;;;;;;;;4999822;28;20085;-65
2022/12/15 13:57:21;;;;;;;7.05;1.40;;;;;;;;;;4999681;28;20046;-65
2022/12/15 14:00:17;;;;;;;6.28;1.33;;;;;;;;;;4995902;28;20046;-66
2022/12/15 14:02:44;;;;;;;5.88;1.50;;;;;;;;;;4995796;28;20054;-64
2022/12/15 14:05:17;;;;;;;9.07;1.30;;;;;;;;;;5003694;28;20046;-65
2022/12/15 14:07:49;;;;;;;6.43;1.38;;;;;;;;;;5006620;28;20033;-65
2022/12/15 14:10:26;;;;;;;3.63;1.38;;;;;;;;;;5006004;28;20113;-62
2022/12/15 14:12:56;;;;;;;5.78;1.48;;;;;;;;;;5005911;28;20061;-62
2022/12/15 14:15:28;;;;;;;6.90;1.50;;;;;;;;;;5005788;28;20065;-67
2022/12/15 14:17:55;;;;;;;6.38;1.48;;;;;;;;;;4998324;28;20058;-64
2022/12/15 14:20:27;;;;;;;7.35;1.13;;;;;;;;;;5005307;28;20053;-65
2022/12/15 14:22:54;;;;;;;5.32;1.20;;;;;;;;;;4996010;28;20046;-65
2022/12/15 14:25:22;;;;;;;3.72;1.10;;;;;;;;;;5000234;28;20073;-63
2022/12/15 14:27:49;;;;;;;7.13;1.17;;;;;;;;;;4997256;28;20049;-64
2022/12/15 14:30:25;;;;;;;3.88;1.20;;;;;;;;;;5000048;28;20045;-63
2022/12/15 14:33:13;;;;;;;5.07;1.15;;;;;;;;;;5005356;28;20062;-64
2022/12/15 14:35:43;;;;;;;4.45;1.13;;;;;;;;;;5003721;28;20782;-64
2022/12/15 14:38:42;;;;;;;3.35;1.30;;;;;;;;;;5006748;28;20077;-63
2022/12/15 14:41:20;;;;;;;3.30;1.05;;;;;;;;;;4995386;28;20047;-62
2022/12/15 14:43:48;;;;;;;4.35;1.35;;;;;;;;;;4995226;28;20121;-63
2022/12/15 14:46:21;;;;;;;4.03;1.13;;;;;;;;;;4993375;28;20568;-65
2022/12/15 14:49:08;;;;;;;6.10;1.48;;;;;;;;;;4992109;28;20311;-66
2022/12/15 14:51:44;;;;;;;4.88;1.13;;;;;;;;;;5001855;28;20660;-66
2022/12/15 14:54:34;;;;;;;2.53;1.10;;;;;;;;;;4997576;28;20056;-65
2022/12/15 14:57:20;;;;;;;5.97;1.13;;;;;;;;;;5000339;28;20489;-68
2022/12/15 14:59:47;;;;;;;5.97;1.20;;;;;;;;;;4998140;28;20061;-67
2022/12/15 15:02:28;;;;;;;3.47;1.05;;;;;;;;;;4999401;28;20642;-63
2022/12/15 15:04:58;;;;;;;8.52;1.27;;;;;;;;;;4999892;28;20137;-65
2022/12/15 15:07:27;;;;;;;5.90;1.45;;;;;;;;;;5000313;28;20161;-67
2022/12/15 15:09:54;;;;;;;7.72;1.60;;;;;;;;;;4989359;28;20137;-65
2022/12/15 15:12:23;;;;;;;2.90;1.17;;;;;;;;;;4999412;28;20064;-62
2022/12/15 15:14:57;;;;;;;4.22;1.40;;;;;;;;;;4992917;28;20050;-61
2022/12/15 15:17:41;;;;;;;2.28;1.15;;;;;;;;;;4999279;28;20058;-64
2022/12/15 15:20:18;;;;;;;;;;;;;;;;;;4996906;28;20409;-66
2022/12/15 15:22:45;;;;;;;3.58;1.30;;;;;;;;;;4991413;28;19995;-64
2022/12/15 15:25:48;;;;;;;7.28;1.67;;;;;;;;;;5005115;28;20062;-62
2022/12/15 15:28:17;;;;;;;7.00;1.80;;;;;;;;;;4998782;28;20705;-63
2022/12/15 15:30:50;;;;;;;4.78;1.30;;;;;;;;;;4998565;28;20637;-65
2022/12/15 15:33:16;;;;;;;10.02;1.40;;;;;;;;;;4997008;28;20057;-62
2022/12/15 15:35:43;;;;;;;6.07;1.38;;;;;;;;;;5002382;28;20053;-63
2022/12/15 15:38:18;;;;;;;4.55;1.17;;;;;;;;;;4991870;28;20516;-67
2022/12/15 15:40:56;;;;;;;3.78;1.30;;;;;;;;;;5000309;28;20062;-63
2022/12/15 15:43:24;;;;;;;7.50;1.40;;;;;;;;;;4979107;28;20057;-64
2022/12/15 15:46:05;;;;;;;3.58;1.27;;;;;;;;;;4998048;28;20060;-70
2022/12/15 15:48:46;;;;;;;9.35;1.40;;;;;;;;;;4996059;28;20156;-66
2022/12/15 15:51:13;;;;;;;5.28;1.33;;;;;;;;;;4996717;28;20054;-65
2022/12/15 15:53:39;;;;;;;4.75;1.50;;;;;;;;;;4993475;28;20224;-64
2022/12/15 15:56:08;;;;;;;5.63;1.60;;;;;;;;;;4994774;28;20061;-65
2022/12/15 15:58:34;;;;;;;6.10;1.67;;;;;;;;;;5002335;28;20054;-66
2022/12/15 16:01:01;;;;;;;6.22;1.40;;;;;;;;;;5005109;28;20547;-65
2022/12/15 16:03:27;;;;;;;3.20;1.30;;;;;;;;;;4999360;28;20053;-64
2022/12/15 16:05:53;;;;;;;3.75;1.40;;;;;;;;;;5003350;28;20440;-63
2022/12/15 16:08:26;;;;;;;2.47;1.17;;;;;;;;;;5005760;28;20069;-63
2022/12/15 16:10:53;;;;;;;3.05;1.20;;;;;;;;;;5005243;28;20644;-65
2022/12/15 16:13:20;;;;;;;5.35;1.40;;;;;;;;;;4976960;28;20046;-64
2022/12/15 16:15:47;;;;;;;5.45;1.63;;;;;;;;;;5004160;28;20064;-63
2022/12/15 16:18:13;;;;;;;4.25;1.20;;;;;;;;;;5003427;28;20073;-62
2022/12/15 16:20:42;;;;;;;3.55;1.00;;;;;;;;;;4996670;28;20425;-65
2022/12/15 16:23:13;;;;;;;5.55;0.70;;;;;;;;;;4994835;28;20156;-62
2022/12/15 16:25:52;;;;;;;2.47;1.00;;;;;;;;;;4990811;28;20053;-64
2022/12/15 16:28:21;;;;;;;2.50;0.80;;;;;;;;;;5001730;28;20049;-64
2022/12/15 16:30:47;;;;;;;0.90;0.60;;;;;;;;;;4998673;28;20065;-68
2022/12/15 16:33:14;;;;;;;1.27;0.70;;;;;;;;;;5002799;28;20425;-68
2022/12/15 16:35:42;;;;;;;5.65;1.15;;;;;;;;;;4999964;28;20038;-65
2022/12/15 16:38:28;;;;;;;3.42;0.95;;;;;;;;;;5007311;28;20050;-64
2022/12/15 16:40:55;;;;;;;1.92;0.98;;;;;;;;;;5002238;28;20050;-64
2022/12/15 16:43:25;;;;;;;4.15;1.25;;;;;;;;;;5005279;28;20052;-63
2022/12/15 16:45:53;;;;;;;3.88;1.25;;;;;;;;;;5003282;28;20069;-65
2022/12/15 16:48:19;;;;;;;2.55;1.17;;;;;;;;;;5005824;28;20140;-67
2022/12/15 16:50:53;;;;;;;7.88;1.20;;;;;;;;;;5004567;28;20061;-64
2022/12/15 16:53:26;;;;;;;3.53;1.33;;;;;;;;;;5000835;28;20061;-67
2022/12/15 16:55:58;;;;;;;5.00;1.15;;;;;;;;;;5006908;28;20050;-64
2022/12/15 16:58:25;;;;;;;2.17;1.00;;;;;;;;;;4996640;28;23779;-66
2022/12/15 17:00:52;;;;;;;5.75;1.20;;;;;;;;;;4997674;28;20499;-65
2022/12/15 17:03:21;;;;;;;2.65;1.20;;;;;;;;;;4999984;28;20052;-64
2022/12/15 17:05:50;;;;;;;3.13;1.08;;;;;;;;;;4998013;28;20410;-69
2022/12/15 17:08:22;;;;;;;3.10;1.30;;;;;;;;;;4992831;28;20115;-66
2022/12/15 17:10:49;;;;;;;4.63;1.45;;;;;;;;;;5000650;28;20115;-63
2022/12/15 17:13:29;;;;;;;2.75;1.15;;;;;;;;;;4986134;28;20057;-66
2022/12/15 17:15:57;;;;;;;2.65;0.90;;;;;;;;;;4991769;28;20770;-65
2022/12/15 17:18:23;;;;;;;6.00;1.23;;;;;;;;;;4995214;28;20070;-64
2022/12/15 17:20:49;;;;;;;3.00;1.10;;;;;;;;;;4990852;28;20525;-64
2022/12/15 17:23:20;;;;;;;6.10;1.48;;;;;;;;;;4993721;28;20049;-63
2022/12/15 17:25:48;;;;;;;3.50;0.90;;;;;;;;;;4997650;28;20046;-64
2022/12/15 17:28:14;;;;;;;6.13;1.05;;;;;;;;;;4994316;28;20042;-66
2022/12/15 17:30:40;;;;;;;2.67;0.93;;;;;;;;;;4993567;28;20084;-66
2022/12/15 17:33:26;;;;;;;5.20;1.13;;;;;;;;;;4994698;28;20058;-65
2022/12/15 17:36:02;;;;;;;2.80;0.93;;;;;;;;;;4993854;28;20053;-65
2022/12/15 17:38:28;;;;;;;5.03;1.15;;;;;;;;;;4993842;28;20042;-65
2022/12/15 17:40:55;;;;;;;2.75;0.90;;;;;;;;;;4995802;28;20050;-64